sensor_id;sensor_type;location;lat;lon;timestamp;pressure;altitude;pressure_sealevel;temperature;humidity
32131;BME280;18639;50.716;7.086;2022-10-18T00:00:53;101368.31;;;16.07;100.00
32131;BME280;18639;50.716;7.086;2022-10-18T00:03:21;101349.59;;;15.89;100.00
32131;BME280;18639;50.716;7.086;2022-10-18T00:05:47;101360.69;;;16.04;100.00
32131;BME280;18639;50.716;7.086;2022-10-18T00:08:13;101332.09;;;15.79;100.00
32131;BME280;18639;50.716;7.086;2022-10-18T00:10:39;101357.06;;;15.94;100.00
32131;BME280;18639;50.716;7.086;2022-10-18T00:13:04;101359.69;;;15.94;100.00
32131;BME280;18639;50.716;7.086;2022-10-18T00:15:29;101349.16;;;15.83;100.00
32131;BME280;18639;50.716;7.086;2022-10-18T00:17:55;101338.75;;;15.83;100.00
32131;BME280;18639;50.716;7.086;2022-10-18T00:20:20;101362.28;;;15.94;100.00
32131;BME280;18639;50.716;7.086;2022-10-18T00:22:45;101358.75;;;15.95;100.00
32131;BME280;18639;50.716;7.086;2022-10-18T00:25:11;101345.19;;;15.90;100.00
32131;BME280;18639;50.716;7.086;2022-10-18T00:27:36;101346.44;;;15.97;100.00
32131;BME280;18639;50.716;7.086;2022-10-18T00:30:03;101353.31;;;15.98;100.00
32131;BME280;18639;50.716;7.086;2022-10-18T00:32:28;101347.38;;;15.96;100.00
32131;BME280;18639;50.716;7.086;2022-10-18T00:34:59;101346.44;;;15.97;100.00
32131;BME280;18639;50.716;7.086;2022-10-18T00:37:24;101340.50;;;15.95;100.00
32131;BME280;18639;50.716;7.086;2022-10-18T00:39:50;101335.38;;;15.93;100.00
32131;BME280;18639;50.716;7.086;2022-10-18T00:42:17;101338.38;;;16.00;100.00
32131;BME280;18639;50.716;7.086;2022-10-18T00:47:09;101337.78;;;15.96;100.00
32131;BME280;18639;50.716;7.086;2022-10-18T00:49:43;101334.13;;;15.99;100.00
32131;BME280;18639;50.716;7.086;2022-10-18T00:52:21;101327.13;;;15.99;100.00
32131;BME280;18639;50.716;7.086;2022-10-18T00:54:50;101338.63;;;15.97;100.00
32131;BME280;18639;50.716;7.086;2022-10-18T00:57:16;101336.72;;;15.99;100.00
32131;BME280;18639;50.716;7.086;2022-10-18T00:59:42;101313.31;;;15.86;100.00
32131;BME280;18639;50.716;7.086;2022-10-18T01:02:12;101338.38;;;16.00;100.00
32131;BME280;18639;50.716;7.086;2022-10-18T01:04:45;101339.97;;;16.03;100.00
32131;BME280;18639;50.716;7.086;2022-10-18T01:07:29;101335.78;;;16.00;100.00
32131;BME280;18639;50.716;7.086;2022-10-18T01:12:43;101327.97;;;16.00;100.00
32131;BME280;18639;50.716;7.086;2022-10-18T01:15:14;101325.34;;;16.00;100.00
32131;BME280;18639;50.716;7.086;2022-10-18T01:17:54;101321.06;;;15.99;100.00
32131;BME280;18639;50.716;7.086;2022-10-18T01:20:49;101324.63;;;15.98;100.00
32131;BME280;18639;50.716;7.086;2022-10-18T01:23:32;101317.63;;;15.98;100.00
32131;BME280;18639;50.716;7.086;2022-10-18T01:31:38;101319.63;;;15.95;100.00
32131;BME280;18639;50.716;7.086;2022-10-18T01:34:09;101311.09;;;15.93;100.00
32131;BME280;18639;50.716;7.086;2022-10-18T01:36:43;101308.72;;;15.90;100.00
32131;BME280;18639;50.716;7.086;2022-10-18T01:39:14;101319.63;;;15.95;100.00
32131;BME280;18639;50.716;7.086;2022-10-18T01:41:42;101306.81;;;15.92;100.00
32131;BME280;18639;50.716;7.086;2022-10-18T01:44:12;101295.16;;;15.85;100.00
32131;BME280;18639;50.716;7.086;2022-10-18T01:46:40;101320.25;;;15.98;100.00
32131;BME280;18639;50.716;7.086;2022-10-18T01:49:06;101316.59;;;16.01;100.00
32131;BME280;18639;50.716;7.086;2022-10-18T01:51:32;101312.22;;;16.02;100.00
32131;BME280;18639;50.716;7.086;2022-10-18T01:53:58;101308.03;;;15.99;100.00
32131;BME280;18639;50.716;7.086;2022-10-18T01:56:30;101314.09;;;15.99;100.00
32131;BME280;18639;50.716;7.086;2022-10-18T01:59:15;101309.47;;;16.03;100.00
32131;BME280;18639;50.716;7.086;2022-10-18T02:01:50;101308.03;;;15.99;100.00
32131;BME280;18639;50.716;7.086;2022-10-18T02:04:44;101312.22;;;16.02;100.00
32131;BME280;18639;50.716;7.086;2022-10-18T02:07:22;101303.75;;;15.98;100.00
32131;BME280;18639;50.716;7.086;2022-10-18T02:10:07;101309.94;;;15.97;100.00
32131;BME280;18639;50.716;7.086;2022-10-18T02:12:35;101307.84;;;16.02;100.00
32131;BME280;18639;50.716;7.086;2022-10-18T02:15:03;101301.16;;;15.98;100.00
32131;BME280;18639;50.716;7.086;2022-10-18T02:17:31;101297.72;;;15.97;100.00
32131;BME280;18639;50.716;7.086;2022-10-18T02:19:59;101289.88;;;15.97;100.00
32131;BME280;18639;50.716;7.086;2022-10-18T02:22:29;101305.22;;;16.02;100.00
32131;BME280;18639;50.716;7.086;2022-10-18T02:24:58;101307.84;;;16.02;100.00
32131;BME280;18639;50.716;7.086;2022-10-18T02:27:25;101295.94;;;15.98;100.00
32131;BME280;18639;50.716;7.086;2022-10-18T02:29:51;101306.38;;;15.98;100.00
32131;BME280;18639;50.716;7.086;2022-10-18T02:35:02;101314.19;;;15.98;100.00
32131;BME280;18639;50.716;7.086;2022-10-18T02:37:32;101324.19;;;16.04;100.00
32131;BME280;18639;50.716;7.086;2022-10-18T02:40:00;101319.91;;;16.03;100.00
32131;BME280;18639;50.716;7.086;2022-10-18T02:42:33;101327.63;;;16.05;100.00
32131;BME280;18639;50.716;7.086;2022-10-18T02:44:58;101323.69;;;15.99;100.00
32131;BME280;18639;50.716;7.086;2022-10-18T02:47:24;101326.94;;;16.03;100.00
32131;BME280;18639;50.716;7.086;2022-10-18T02:49:49;101322.66;;;16.02;100.00
32131;BME280;18639;50.716;7.086;2022-10-18T02:52:14;101324.91;;;16.06;100.00
32131;BME280;18639;50.716;7.086;2022-10-18T02:54:39;101309.22;;;15.95;100.00
32131;BME280;18639;50.716;7.086;2022-10-18T02:57:05;101310.38;;;15.91;100.00
32131;BME280;18639;50.716;7.086;2022-10-18T02:59:30;101324.53;;;15.99;100.00
32131;BME280;18639;50.716;7.086;2022-10-18T03:01:55;101315.34;;;15.94;100.00
32131;BME280;18639;50.716;7.086;2022-10-18T03:04:21;101337.03;;;16.07;100.00
32131;BME280;18639;50.716;7.086;2022-10-18T03:06:46;101337.13;;;16.06;100.00
32131;BME280;18639;50.716;7.086;2022-10-18T03:09:11;101335.78;;;16.00;100.00
32131;BME280;18639;50.716;7.086;2022-10-18T03:11:37;101317.88;;;15.95;100.00
32131;BME280;18639;50.716;7.086;2022-10-18T03:14:03;101307.47;;;15.83;100.00
32131;BME280;18639;50.716;7.086;2022-10-18T03:16:28;101329.13;;;15.96;100.00
32131;BME280;18639;50.716;7.086;2022-10-18T03:18:53;101291.66;;;15.73;100.00
32131;BME280;18639;50.716;7.086;2022-10-18T03:21:19;101334.13;;;15.99;100.00
32131;BME280;18639;50.716;7.086;2022-10-18T03:23:44;101337.78;;;15.96;100.00
32131;BME280;18639;50.716;7.086;2022-10-18T03:26:09;101322.28;;;15.82;100.00
32131;BME280;18639;50.716;7.086;2022-10-18T03:28:35;101332.78;;;15.93;100.00
32131;BME280;18639;50.716;7.086;2022-10-18T03:31:01;101332.06;;;15.91;100.00
32131;BME280;18639;50.716;7.086;2022-10-18T03:33:27;101321.25;;;15.85;100.00
32131;BME280;18639;50.716;7.086;2022-10-18T03:35:52;101330.50;;;15.89;100.00
32131;BME280;18639;50.716;7.086;2022-10-18T03:38:17;101333.84;;;15.91;100.00
32131;BME280;18639;50.716;7.086;2022-10-18T03:40:43;101352.69;;;15.94;100.00
32131;BME280;18639;50.716;7.086;2022-10-18T03:43:08;101346.31;;;15.98;100.00
32131;BME280;18639;50.716;7.086;2022-10-18T03:45:33;101338.66;;;15.84;100.00
32131;BME280;18639;50.716;7.086;2022-10-18T03:47:58;101343.31;;;15.92;100.00
32131;BME280;18639;50.716;7.086;2022-10-18T03:50:24;101310.00;;;15.72;100.00
32131;BME280;18639;50.716;7.086;2022-10-18T03:52:49;101338.31;;;15.89;100.00
32131;BME280;18639;50.716;7.086;2022-10-18T03:55:14;101341.34;;;15.95;100.00
32131;BME280;18639;50.716;7.086;2022-10-18T03:57:40;101323.09;;;15.83;100.00
32131;BME280;18639;50.716;7.086;2022-10-18T04:00:06;101334.53;;;15.93;100.00
32131;BME280;18639;50.716;7.086;2022-10-18T04:02:31;101281.25;;;15.61;100.00
32131;BME280;18639;50.716;7.086;2022-10-18T04:04:56;101307.91;;;15.77;100.00
32131;BME280;18639;50.716;7.086;2022-10-18T04:07:22;101320.16;;;15.87;100.00
32131;BME280;18639;50.716;7.086;2022-10-18T04:09:48;101321.44;;;15.82;100.00
32131;BME280;18639;50.716;7.086;2022-10-18T04:12:13;101337.72;;;15.85;100.00
32131;BME280;18639;50.716;7.086;2022-10-18T04:14:38;101340.66;;;15.81;100.00
32131;BME280;18639;50.716;7.086;2022-10-18T04:17:05;101344.59;;;15.86;100.00
32131;BME280;18639;50.716;7.086;2022-10-18T04:19:30;101345.97;;;15.79;100.00
32131;BME280;18639;50.716;7.086;2022-10-18T04:21:55;101346.38;;;15.86;100.00
32131;BME280;18639;50.716;7.086;2022-10-18T04:24:21;101343.97;;;15.83;100.00
32131;BME280;18639;50.716;7.086;2022-10-18T04:26:46;101337.06;;;15.82;100.00
32131;BME280;18639;50.716;7.086;2022-10-18T04:29:11;101349.16;;;15.83;100.00
32131;BME280;18639;50.716;7.086;2022-10-18T04:31:36;101343.03;;;15.84;100.00
32131;BME280;18639;50.716;7.086;2022-10-18T04:34:02;101345.03;;;15.80;100.00
32131;BME280;18639;50.716;7.086;2022-10-18T04:36:29;101341.91;;;15.75;100.00
32131;BME280;18639;50.716;7.086;2022-10-18T04:38:54;101319.63;;;15.58;100.00
32131;BME280;18639;50.716;7.086;2022-10-18T04:41:19;101349.81;;;15.74;100.00
32131;BME280;18639;50.716;7.086;2022-10-18T04:43:44;101343.69;;;15.75;100.00
32131;BME280;18639;50.716;7.086;2022-10-18T04:46:10;101352.09;;;15.78;100.00
32131;BME280;18639;50.716;7.086;2022-10-18T04:48:35;101351.38;;;15.76;100.00
32131;BME280;18639;50.716;7.086;2022-10-18T04:51:00;101337.53;;;15.76;100.00
32131;BME280;18639;50.716;7.086;2022-10-18T04:53:26;101338.47;;;15.75;100.00
32131;BME280;18639;50.716;7.086;2022-10-18T04:55:51;101322.09;;;15.60;100.00
32131;BME280;18639;50.716;7.086;2022-10-18T04:58:17;101341.91;;;15.75;100.00
32131;BME280;18639;50.716;7.086;2022-10-18T05:00:42;101351.69;;;15.72;100.00
32131;BME280;18639;50.716;7.086;2022-10-18T05:03:08;101359.31;;;15.75;100.00
32131;BME280;18639;50.716;7.086;2022-10-18T05:05:34;101353.38;;;15.73;100.00
32131;BME280;18639;50.716;7.086;2022-10-18T05:07:59;101329.22;;;15.58;100.00
32131;BME280;18639;50.716;7.086;2022-10-18T05:10:24;101366.31;;;15.74;100.00
32131;BME280;18639;50.716;7.086;2022-10-18T05:12:49;101362.75;;;15.75;100.00
32131;BME280;18639;50.716;7.086;2022-10-18T05:15:15;101351.00;;;15.70;100.00
32131;BME280;18639;50.716;7.086;2022-10-18T05:17:40;101357.56;;;15.75;100.00
32131;BME280;18639;50.716;7.086;2022-10-18T05:20:06;101333.59;;;15.57;100.00
32131;BME280;18639;50.716;7.086;2022-10-18T05:22:31;101360.03;;;15.77;100.00
32131;BME280;18639;50.716;7.086;2022-10-18T05:24:56;101361.09;;;15.74;100.00
32131;BME280;18639;50.716;7.086;2022-10-18T05:27:21;101365.25;;;15.77;100.00
32131;BME280;18639;50.716;7.086;2022-10-18T05:29:47;101348.06;;;15.62;100.00
32131;BME280;18639;50.716;7.086;2022-10-18T05:32:12;101365.56;;;15.72;100.00
32131;BME280;18639;50.716;7.086;2022-10-18T05:34:37;101368.25;;;15.71;100.00
32131;BME280;18639;50.716;7.086;2022-10-18T05:37:03;101368.91;;;15.74;100.00
32131;BME280;18639;50.716;7.086;2022-10-18T05:39:28;101343.78;;;15.61;100.00
32131;BME280;18639;50.716;7.086;2022-10-18T05:41:53;101372.69;;;15.70;100.00
32131;BME280;18639;50.716;7.086;2022-10-18T05:44:19;101363.38;;;15.66;100.00
32131;BME280;18639;50.716;7.086;2022-10-18T05:46:44;101363.28;;;15.68;100.00
32131;BME280;18639;50.716;7.086;2022-10-18T05:49:13;101351.94;;;15.56;100.00
32131;BME280;18639;50.716;7.086;2022-10-18T05:51:38;101346.09;;;15.52;100.00
32131;BME280;18639;50.716;7.086;2022-10-18T05:54:12;101364.22;;;15.67;100.00
32131;BME280;18639;50.716;7.086;2022-10-18T05:56:38;101374.63;;;15.67;100.00
32131;BME280;18639;50.716;7.086;2022-10-18T05:59:04;101386.00;;;15.66;100.00
32131;BME280;18639;50.716;7.086;2022-10-18T06:01:34;101369.13;;;15.58;100.00
32131;BME280;18639;50.716;7.086;2022-10-18T06:04:00;101360.06;;;15.51;100.00
32131;BME280;18639;50.716;7.086;2022-10-18T06:06:26;101369.66;;;15.64;100.00
32131;BME280;18639;50.716;7.086;2022-10-18T06:08:51;101373.19;;;15.63;100.00
32131;BME280;18639;50.716;7.086;2022-10-18T06:11:18;101392.69;;;15.70;100.00
32131;BME280;18639;50.716;7.086;2022-10-18T06:13:46;101375.88;;;15.61;100.00
32131;BME280;18639;50.716;7.086;2022-10-18T06:16:13;101390.06;;;15.70;100.00
32131;BME280;18639;50.716;7.086;2022-10-18T06:18:39;101386.97;;;15.65;100.00
32131;BME280;18639;50.716;7.086;2022-10-18T06:21:05;101386.72;;;15.68;100.00
32131;BME280;18639;50.716;7.086;2022-10-18T06:23:30;101388.19;;;15.72;100.00
32131;BME280;18639;50.716;7.086;2022-10-18T06:26:03;101374.13;;;15.62;100.00
32131;BME280;18639;50.716;7.086;2022-10-18T06:28:29;101364.75;;;15.59;100.00
32131;BME280;18639;50.716;7.086;2022-10-18T06:30:55;101391.53;;;15.74;100.00
32131;BME280;18639;50.716;7.086;2022-10-18T06:33:21;101394.13;;;15.74;100.00
32131;BME280;18639;50.716;7.086;2022-10-18T06:35:57;101387.16;;;15.74;100.00
32131;BME280;18639;50.716;7.086;2022-10-18T06:38:24;101382.78;;;15.75;100.00
32131;BME280;18639;50.716;7.086;2022-10-18T06:40:49;101375.69;;;15.64;100.00
32131;BME280;18639;50.716;7.086;2022-10-18T06:43:14;101386.50;;;15.71;100.00
32131;BME280;18639;50.716;7.086;2022-10-18T06:45:40;101377.97;;;15.69;100.00
32131;BME280;18639;50.716;7.086;2022-10-18T06:48:05;101386.50;;;15.71;100.00
32131;BME280;18639;50.716;7.086;2022-10-18T06:50:31;101395.91;;;15.73;100.00
32131;BME280;18639;50.716;7.086;2022-10-18T06:52:56;101398.19;;;15.78;100.00
32131;BME280;18639;50.716;7.086;2022-10-18T06:55:21;101393.19;;;15.75;100.00
32131;BME280;18639;50.716;7.086;2022-10-18T06:57:47;101388.19;;;15.72;100.00
32131;BME280;18639;50.716;7.086;2022-10-18T07:00:12;101400.88;;;15.76;100.00
32131;BME280;18639;50.716;7.086;2022-10-18T07:02:39;101398.28;;;15.76;100.00
32131;BME280;18639;50.716;7.086;2022-10-18T07:05:06;101396.50;;;15.77;100.00
32131;BME280;18639;50.716;7.086;2022-10-18T07:07:31;101409.53;;;15.77;100.00
32131;BME280;18639;50.716;7.086;2022-10-18T07:09:56;101416.94;;;15.83;100.00
32131;BME280;18639;50.716;7.086;2022-10-18T07:12:21;101395.47;;;15.67;100.00
32131;BME280;18639;50.716;7.086;2022-10-18T07:14:47;101404.34;;;15.77;100.00
32131;BME280;18639;50.716;7.086;2022-10-18T07:17:12;101422.81;;;15.86;100.00
32131;BME280;18639;50.716;7.086;2022-10-18T07:19:38;101411.72;;;15.83;100.00
32131;BME280;18639;50.716;7.086;2022-10-18T07:22:03;101427.03;;;15.87;100.00
32131;BME280;18639;50.716;7.086;2022-10-18T07:24:28;101418.41;;;15.87;100.00
32131;BME280;18639;50.716;7.086;2022-10-18T07:26:54;101404.84;;;15.82;100.00
32131;BME280;18639;50.716;7.086;2022-10-18T07:29:19;101420.06;;;15.88;100.00
32131;BME280;18639;50.716;7.086;2022-10-18T07:31:44;101421.50;;;15.92;100.00
32131;BME280;18639;50.716;7.086;2022-10-18T07:34:11;101384.44;;;15.63;100.00
32131;BME280;18639;50.716;7.086;2022-10-18T07:36:37;101434.63;;;16.03;100.00
32131;BME280;18639;50.716;7.086;2022-10-18T07:39:03;101444.34;;;16.01;100.00
32131;BME280;18639;50.716;7.086;2022-10-18T07:41:28;101424.75;;;15.95;100.00
32131;BME280;18639;50.716;7.086;2022-10-18T07:43:57;101449.84;;;16.09;100.00
32131;BME280;18639;50.716;7.086;2022-10-18T07:46:23;101452.47;;;16.09;100.00
32131;BME280;18639;50.716;7.086;2022-10-18T07:48:48;101453.31;;;16.10;100.00
32131;BME280;18639;50.716;7.086;2022-10-18T07:51:13;101456.97;;;16.07;100.00
32131;BME280;18639;50.716;7.086;2022-10-18T07:53:39;101467.19;;;16.10;100.00
32131;BME280;18639;50.716;7.086;2022-10-18T07:56:07;101473.22;;;16.11;100.00
32131;BME280;18639;50.716;7.086;2022-10-18T07:58:35;101464.81;;;16.07;100.00
32131;BME280;18639;50.716;7.086;2022-10-18T08:01:05;101480.22;;;16.10;100.00
32131;BME280;18639;50.716;7.086;2022-10-18T08:03:30;101483.44;;;16.14;100.00
32131;BME280;18639;50.716;7.086;2022-10-18T08:05:56;101472.50;;;16.09;100.00
32131;BME280;18639;50.716;7.086;2022-10-18T08:08:22;101481.78;;;16.13;100.00
32131;BME280;18639;50.716;7.086;2022-10-18T08:10:48;101485.25;;;16.13;100.00
32131;BME280;18639;50.716;7.086;2022-10-18T08:13:14;101478.25;;;16.01;100.00
32131;BME280;18639;50.716;7.086;2022-10-18T08:15:39;101481.16;;;16.09;100.00
32131;BME280;18639;50.716;7.086;2022-10-18T08:18:04;101487.22;;;16.10;100.00
32131;BME280;18639;50.716;7.086;2022-10-18T08:20:30;101487.00;;;16.13;100.00
32131;BME280;18639;50.716;7.086;2022-10-18T08:22:57;101483.84;;;16.20;100.00
32131;BME280;18639;50.716;7.086;2022-10-18T08:25:23;101488.03;;;16.23;100.00
32131;BME280;18639;50.716;7.086;2022-10-18T08:27:48;101442.59;;;16.02;100.00
32131;BME280;18639;50.716;7.086;2022-10-18T08:30:13;101485.50;;;16.34;100.00
32131;BME280;18639;50.716;7.086;2022-10-18T08:32:39;101465.06;;;16.28;100.00
32131;BME280;18639;50.716;7.086;2022-10-18T08:35:04;101479.03;;;16.39;100.00
32131;BME280;18639;50.716;7.086;2022-10-18T08:37:30;101487.38;;;16.45;100.00
32131;BME280;18639;50.716;7.086;2022-10-18T08:39:55;101473.16;;;16.36;100.00
32131;BME280;18639;50.716;7.086;2022-10-18T08:42:38;101493.78;;;16.52;100.00
32131;BME280;18639;50.716;7.086;2022-10-18T08:45:09;101494.75;;;16.51;100.00
32131;BME280;18639;50.716;7.086;2022-10-18T08:47:39;101500.50;;;16.56;100.00
32131;BME280;18639;50.716;7.086;2022-10-18T08:50:15;101493.38;;;16.58;100.00
32131;BME280;18639;50.716;7.086;2022-10-18T08:53:03;101501.84;;;16.61;100.00
32131;BME280;18639;50.716;7.086;2022-10-18T08:55:35;101492.47;;;16.59;100.00
32131;BME280;18639;50.716;7.086;2022-10-18T08:58:16;101490.03;;;16.56;100.00
32131;BME280;18639;50.716;7.086;2022-10-18T09:00:51;101503.41;;;16.64;100.00
32131;BME280;18639;50.716;7.086;2022-10-18T09:06:30;101516.44;;;16.64;100.00
32131;BME280;18639;50.716;7.086;2022-10-18T09:09:24;101513.41;;;16.57;100.00
32131;BME280;18639;50.716;7.086;2022-10-18T09:15:07;101517.63;;;16.60;100.00
32131;BME280;18639;50.716;7.086;2022-10-18T09:20:22;101500.09;;;16.49;100.00
32131;BME280;18639;50.716;7.086;2022-10-18T09:22:56;101515.09;;;16.58;100.00
32131;BME280;18639;50.716;7.086;2022-10-18T09:25:35;101531.44;;;16.73;100.00
32131;BME280;18639;50.716;7.086;2022-10-18T09:28:18;101531.03;;;16.79;100.00
32131;BME280;18639;50.716;7.086;2022-10-18T09:31:07;101525.78;;;16.79;100.00
32131;BME280;18639;50.716;7.086;2022-10-18T09:33:49;101530.34;;;16.88;100.00
32131;BME280;18639;50.716;7.086;2022-10-18T09:36:21;101527.44;;;16.93;100.00
32131;BME280;18639;50.716;7.086;2022-10-18T09:38:54;101522.06;;;16.94;100.00
32131;BME280;18639;50.716;7.086;2022-10-18T09:41:38;101521.38;;;16.92;100.00
32131;BME280;18639;50.716;7.086;2022-10-18T09:46:41;101515.75;;;16.86;100.00
32131;BME280;18639;50.716;7.086;2022-10-18T09:49:16;101512.66;;;16.80;100.00
32131;BME280;18639;50.716;7.086;2022-10-18T09:51:44;101521.81;;;16.86;100.00
32131;BME280;18639;50.716;7.086;2022-10-18T09:57:07;101526.72;;;16.78;100.00
32131;BME280;18639;50.716;7.086;2022-10-18T09:59:42;101531.97;;;16.78;100.00
32131;BME280;18639;50.716;7.086;2022-10-18T10:02:19;101529.69;;;16.73;100.00
32131;BME280;18639;50.716;7.086;2022-10-18T10:04:46;101529.81;;;16.72;100.00
32131;BME280;18639;50.716;7.086;2022-10-18T10:07:33;101542.13;;;16.70;100.00
32131;BME280;18639;50.716;7.086;2022-10-18T10:10:11;101528.47;;;16.66;100.00
32131;BME280;18639;50.716;7.086;2022-10-18T10:12:38;101542.22;;;16.68;100.00
32131;BME280;18639;50.716;7.086;2022-10-18T10:18:03;101550.47;;;16.75;100.00
32131;BME280;18639;50.716;7.086;2022-10-18T10:20:42;101546.06;;;16.75;100.00
32131;BME280;18639;50.716;7.086;2022-10-18T10:23:15;101532.72;;;16.67;100.00
32131;BME280;18639;50.716;7.086;2022-10-18T10:25:49;101536.16;;;16.68;100.00
32131;BME280;18639;50.716;7.086;2022-10-18T10:28:18;101537.84;;;16.69;100.00
32131;BME280;18639;50.716;7.086;2022-10-18T10:30:44;101556.41;;;16.77;100.00
32131;BME280;18639;50.716;7.086;2022-10-18T10:33:32;101530.44;;;16.63;100.00
32131;BME280;18639;50.716;7.086;2022-10-18T10:35:59;101555.59;;;16.76;100.00
32131;BME280;18639;50.716;7.086;2022-10-18T10:38:27;101541.38;;;16.68;100.00
32131;BME280;18639;50.716;7.086;2022-10-18T10:40:56;101554.50;;;16.79;100.00
32131;BME280;18639;50.716;7.086;2022-10-18T10:43:35;101534.28;;;16.70;100.00
32131;BME280;18639;50.716;7.086;2022-10-18T10:46:08;101558.78;;;16.93;100.00
32131;BME280;18639;50.716;7.086;2022-10-18T10:48:44;101515.19;;;16.69;100.00
32131;BME280;18639;50.716;7.086;2022-10-18T10:51:11;101550.38;;;17.00;100.00
32131;BME280;18639;50.716;7.086;2022-10-18T10:53:47;101545.44;;;17.08;100.00
32131;BME280;18639;50.716;7.086;2022-10-18T10:58:57;101563.00;;;17.06;100.00
32131;BME280;18639;50.716;7.086;2022-10-18T11:01:30;101565.84;;;17.03;100.00
32131;BME280;18639;50.716;7.086;2022-10-18T11:04:02;101541.47;;;16.79;100.00
32131;BME280;18639;50.716;7.086;2022-10-18T11:06:51;101541.56;;;16.77;100.00
32131;BME280;18639;50.716;7.086;2022-10-18T11:09:26;101576.91;;;16.94;100.00
32131;BME280;18639;50.716;7.086;2022-10-18T11:12:00;101577.06;;;16.93;100.00
32131;BME280;18639;50.716;7.086;2022-10-18T11:14:31;101545.47;;;16.72;100.00
32131;BME280;18639;50.716;7.086;2022-10-18T11:17:33;101562.34;;;16.79;100.00
32131;BME280;18639;50.716;7.086;2022-10-18T11:20:09;101576.84;;;16.83;100.00
32131;BME280;18639;50.716;7.086;2022-10-18T11:23:04;101568.06;;;16.84;100.00
32131;BME280;18639;50.716;7.086;2022-10-18T11:34:48;101554.72;;;17.12;100.00
32131;BME280;18639;50.716;7.086;2022-10-18T11:37:35;101544.66;;;17.19;100.00
32131;BME280;18639;50.716;7.086;2022-10-18T11:40:31;101550.09;;;17.40;100.00
32131;BME280;18639;50.716;7.086;2022-10-18T11:51:05;101525.63;;;17.76;100.00
32131;BME280;18639;50.716;7.086;2022-10-18T11:53:39;101534.28;;;17.76;100.00
32131;BME280;18639;50.716;7.086;2022-10-18T11:56:33;101524.78;;;17.75;100.00
32131;BME280;18639;50.716;7.086;2022-10-18T12:01:56;101528.34;;;17.74;100.00
32131;BME280;18639;50.716;7.086;2022-10-18T12:04:32;101523.00;;;17.76;100.00
32131;BME280;18639;50.716;7.086;2022-10-18T12:06:58;101528.81;;;17.79;100.00
32131;BME280;18639;50.716;7.086;2022-10-18T12:09:35;101516.25;;;17.73;100.00
32131;BME280;18639;50.716;7.086;2022-10-18T12:12:21;101520.75;;;17.71;100.00
32131;BME280;18639;50.716;7.086;2022-10-18T12:14:52;101514.66;;;17.59;100.00
32131;BME280;18639;50.716;7.086;2022-10-18T12:19:57;101518.09;;;17.60;100.00
32131;BME280;18639;50.716;7.086;2022-10-18T12:22:48;101525.25;;;17.69;100.00
32131;BME280;18639;50.716;7.086;2022-10-18T12:25:16;101523.00;;;17.76;100.00
32131;BME280;18639;50.716;7.086;2022-10-18T12:33:34;101526.84;;;17.94;100.00
32131;BME280;18639;50.716;7.086;2022-10-18T12:36:22;101522.94;;;17.99;100.00
32131;BME280;18639;50.716;7.086;2022-10-18T12:38:57;101502.47;;;17.93;100.00
32131;BME280;18639;50.716;7.086;2022-10-18T12:41:27;101506.16;;;18.02;100.00
32131;BME280;18639;50.716;7.086;2022-10-18T12:43:57;101516.03;;;18.21;100.00
32131;BME280;18639;50.716;7.086;2022-10-18T12:46:41;101511.50;;;18.34;100.00
32131;BME280;18639;50.716;7.086;2022-10-18T12:49:10;101503.19;;;18.29;100.00
32131;BME280;18639;50.716;7.086;2022-10-18T12:51:57;101511.13;;;18.38;100.00
32131;BME280;18639;50.716;7.086;2022-10-18T12:54:29;101508.19;;;18.32;100.00
32131;BME280;18639;50.716;7.086;2022-10-18T12:56:58;101521.84;;;18.35;100.00
32131;BME280;18639;50.716;7.086;2022-10-18T13:09:41;101490.09;;;18.40;100.00
32131;BME280;18639;50.716;7.086;2022-10-18T13:15:05;101496.06;;;18.31;100.00
32131;BME280;18639;50.716;7.086;2022-10-18T13:17:51;101494.28;;;18.20;100.00
32131;BME280;18639;50.716;7.086;2022-10-18T13:20:36;101490.34;;;18.15;100.00
32131;BME280;18639;50.716;7.086;2022-10-18T13:23:30;101486.78;;;18.16;100.00
32131;BME280;18639;50.716;7.086;2022-10-18T13:26:21;101487.84;;;18.13;100.00
32131;BME280;18639;50.716;7.086;2022-10-18T13:29:25;101478.22;;;18.14;100.00
32131;BME280;18639;50.716;7.086;2022-10-18T13:32:06;101483.44;;;18.14;100.00
32131;BME280;18639;50.716;7.086;2022-10-18T13:34:40;101484.16;;;18.16;100.00
32131;BME280;18639;50.716;7.086;2022-10-18T13:39:36;101486.78;;;18.04;100.00
32131;BME280;18639;50.716;7.086;2022-10-18T13:44:45;101492.38;;;18.00;100.00
32131;BME280;18639;50.716;7.086;2022-10-18T13:47:13;101499.13;;;18.02;100.00
32131;BME280;18639;50.716;7.086;2022-10-18T14:00:13;101496.53;;;18.14;100.00
32131;BME280;18639;50.716;7.086;2022-10-18T14:03:18;101487.00;;;18.13;100.00
32131;BME280;18639;50.716;7.086;2022-10-18T14:05:53;101493.66;;;18.17;100.00
32131;BME280;18639;50.716;7.086;2022-10-18T14:08:33;101496.63;;;18.23;100.00
32131;BME280;18639;50.716;7.086;2022-10-18T14:14:16;101493.66;;;18.39;100.00
32131;BME280;18639;50.716;7.086;2022-10-18T14:17:00;101496.72;;;18.44;100.00
32131;BME280;18639;50.716;7.086;2022-10-18T14:19:33;101496.03;;;18.42;100.00
32131;BME280;18639;50.716;7.086;2022-10-18T14:22:08;101504.94;;;18.50;100.00
32131;BME280;18639;50.716;7.086;2022-10-18T14:24:37;101494.94;;;18.44;100.00
32131;BME280;18639;50.716;7.086;2022-10-18T14:27:15;101511.97;;;18.39;100.00
32131;BME280;18639;50.716;7.086;2022-10-18T14:29:40;101501.88;;;18.23;100.00